Time;durP1;ratioP1;P1;durP2;ratioP2;P2;SDS_P1;SDS_P2;PMS_P1;PMS_P2;Temp;Humidity;BMP_temperature;BMP_pressure;BME280_temperature;BME280_humidity;BME280_pressure;Samples;Min_cycle;Max_cycle;Signal;HPM_P1;HPM_P2
2022/09/11 00:01:02;;;;;;;1.55;0.60;;;23.40;56.70;;;;;;5047612;28;20141;-45
2022/09/11 00:03:30;;;;;;;2.22;0.85;;;23.30;56.70;;;;;;5052763;28;20049;-45
2022/09/11 00:06:02;;;;;;;1.15;0.60;;;23.30;56.70;;;;;;5048530;28;20037;-46
2022/09/11 00:08:31;;;;;;;1.00;0.43;;;23.30;56.60;;;;;;5047665;28;20080;-48
2022/09/11 00:11:04;;;;;;;0.75;0.50;;;23.30;56.70;;;;;;5054218;28;20124;-49
2022/09/11 00:13:32;;;;;;;1.15;0.38;;;23.20;56.80;;;;;;5048047;28;20505;-49
2022/09/11 00:15:59;;;;;;;1.40;0.60;;;23.30;56.70;;;;;;5029905;28;20040;-46
2022/09/11 00:18:28;;;;;;;0.70;0.70;;;23.20;56.70;;;;;;5047666;28;20045;-49
2022/09/11 00:20:57;;;;;;;5.68;0.68;;;23.20;56.60;;;;;;5047557;28;20128;-48
2022/09/11 00:23:26;;;;;;;1.15;0.40;;;23.20;56.60;;;;;;5029624;28;20056;-49
2022/09/11 00:25:54;;;;;;;0.50;0.40;;;23.20;56.70;;;;;;5047862;28;20037;-45
2022/09/11 00:28:24;;;;;;;1.77;0.52;;;23.20;56.70;;;;;;5047125;28;20140;-50
2022/09/11 00:30:58;;;;;;;2.75;1.05;;;23.10;56.60;;;;;;5047337;28;20084;-46
2022/09/11 00:33:26;;;;;;;3.28;0.40;;;23.10;57.20;;;;;;5048709;28;20048;-48
2022/09/11 00:35:57;;;;;;;0.45;0.25;;;23.10;56.70;;;;;;5047785;28;20033;-45
2022/09/11 00:38:25;;;;;;;2.30;0.65;;;23.10;56.70;;;;;;5029047;28;20049;-50
2022/09/11 00:40:57;;;;;;;0.57;0.30;;;23.10;56.70;;;;;;5047324;28;20099;-47
2022/09/11 00:43:24;;;;;;;1.15;0.38;;;23.10;56.70;;;;;;5014235;28;20041;-48
2022/09/11 00:45:57;;;;;;;0.82;0.40;;;23.10;56.80;;;;;;5044636;28;20033;-46
2022/09/11 00:48:28;;;;;;;2.35;0.30;;;23.00;56.60;;;;;;5051099;28;20109;-46
2022/09/11 00:50:56;;;;;;;0.65;0.55;;;23.00;56.70;;;;;;5052522;28;20040;-45
2022/09/11 00:53:26;;;;;;;1.52;0.47;;;23.00;56.80;;;;;;5050788;28;20095;-47
2022/09/11 00:55:59;;;;;;;3.05;0.43;;;23.00;56.80;;;;;;5051102;28;20052;-46
2022/09/11 00:58:32;;;;;;;3.97;0.43;;;23.00;56.80;;;;;;5054494;28;20516;-45
2022/09/11 01:00:59;;;;;;;0.98;0.73;;;23.00;56.90;;;;;;5050476;28;20049;-47
2022/09/11 01:03:27;;;;;;;2.13;0.40;;;22.90;56.90;;;;;;5051430;28;20130;-44
2022/09/11 01:05:56;;;;;;;3.38;0.80;;;22.90;56.90;;;;;;5056061;28;20072;-52
2022/09/11 01:08:23;;;;;;;0.95;0.70;;;22.90;57.00;;;;;;5050882;28;20131;-49
2022/09/11 01:11:11;;;;;;;0.40;0.40;;;22.90;57.00;;;;;;5032861;28;20532;-45
2022/09/11 01:13:46;;;;;;;1.08;0.43;;;22.90;57.00;;;;;;5050768;28;20386;-44
2022/09/11 01:16:20;;;;;;;0.90;0.50;;;22.90;57.00;;;;;;5050659;28;20072;-47
2022/09/11 01:18:54;;;;;;;1.60;0.30;;;22.90;57.10;;;;;;5050850;28;20048;-43
2022/09/11 01:21:51;;;;;;;1.80;0.35;;;22.80;57.10;;;;;;5050171;28;20051;-43
2022/09/11 01:24:42;;;;;;;3.15;0.77;;;22.80;57.10;;;;;;5053524;28;20149;-43
2022/09/11 01:27:30;;;;;;;0.82;0.60;;;22.80;57.10;;;;;;5039233;28;20049;-44
2022/09/11 01:30:03;;;;;;;1.73;0.57;;;22.70;57.20;;;;;;5034444;28;20064;-47
2022/09/11 01:32:38;;;;;;;1.73;0.70;;;22.70;57.20;;;;;;5049186;28;20051;-44
2022/09/11 01:35:12;;;;;;;0.40;0.40;;;22.70;57.30;;;;;;5051541;28;20052;-44
2022/09/11 01:37:45;;;;;;;2.53;0.55;;;22.70;57.30;;;;;;5048550;28;20032;-47
2022/09/11 01:40:21;;;;;;;1.58;0.32;;;22.70;57.30;;;;;;5050851;28;20041;-44
2022/09/11 01:42:52;;;;;;;2.78;0.38;;;22.70;57.30;;;;;;5032654;28;20053;-43
2022/09/11 01:45:24;;;;;;;1.15;0.55;;;22.70;57.30;;;;;;5035184;28;20041;-45
2022/09/11 01:47:52;;;;;;;5.95;0.30;;;22.70;57.40;;;;;;5023284;28;20502;-45
2022/09/11 01:50:20;;;;;;;0.65;0.40;;;22.70;57.40;;;;;;5047970;28;20911;-45
2022/09/11 01:52:52;;;;;;;1.73;0.45;;;22.60;57.40;;;;;;5018126;28;20100;-45
2022/09/11 01:55:25;;;;;;;0.68;0.50;;;22.60;57.40;;;;;;5016462;28;20124;-47
2022/09/11 01:57:57;;;;;;;1.98;0.70;;;22.60;58.00;;;;;;5052561;28;20414;-44
2022/09/11 02:00:26;;;;;;;1.40;0.70;;;22.60;57.50;;;;;;5037350;28;20100;-45
2022/09/11 02:02:59;;;;;;;1.40;0.68;;;22.60;58.10;;;;;;5025366;28;20048;-45
2022/09/11 02:05:32;;;;;;;0.90;0.40;;;22.50;57.50;;;;;;5049750;28;20041;-46
2022/09/11 02:08:04;;;;;;;1.05;0.57;;;22.50;58.10;;;;;;5035625;28;20037;-45
2022/09/11 02:10:35;;;;;;;0.93;0.32;;;22.50;57.60;;;;;;5026773;28;20037;-46
2022/09/11 02:13:12;;;;;;;4.22;1.27;;;22.50;57.70;;;;;;5054225;28;20144;-45
2022/09/11 02:15:44;;;;;;;0.90;0.70;;;22.50;57.60;;;;;;5018864;28;20041;-46
2022/09/11 02:18:18;;;;;;;2.10;0.70;;;22.40;57.60;;;;;;5031572;28;20041;-47
2022/09/11 02:20:46;;;;;;;2.15;0.45;;;22.40;57.60;;;;;;5033245;28;20497;-51
2022/09/11 02:23:14;;;;;;;0.70;0.70;;;22.40;57.70;;;;;;5031643;28;20044;-46
2022/09/11 02:25:41;;;;;;;2.72;0.85;;;22.40;57.70;;;;;;5036964;28;20044;-47
2022/09/11 02:28:09;;;;;;;5.60;1.02;;;22.30;57.70;;;;;;5037470;28;20048;-45
2022/09/11 02:30:38;;;;;;;2.35;0.70;;;22.30;57.70;;;;;;5042576;28;20421;-45
2022/09/11 02:33:29;;;;;;;0.77;0.77;;;22.30;57.80;;;;;;5049982;28;20123;-46
2022/09/11 02:36:13;;;;;;;2.53;0.73;;;22.30;57.80;;;;;;5037808;28;20583;-47
2022/09/11 02:38:54;;;;;;;1.85;0.95;;;22.30;58.00;;;;;;5058626;28;20036;-49
2022/09/11 02:41:28;;;;;;;2.22;1.17;;;22.30;58.00;;;;;;5032147;28;20044;-45
2022/09/11 02:44:06;;;;;;;1.38;0.43;;;22.20;58.00;;;;;;5031024;28;20065;-44
2022/09/11 02:46:54;;;;;;;2.78;1.48;;;22.20;58.10;;;;;;5032140;28;20059;-45
2022/09/11 02:49:30;;;;;;;2.05;0.80;;;22.20;58.10;;;;;;5033271;28;20056;-47
2022/09/11 02:52:07;;;;;;;1.50;0.55;;;22.20;58.20;;;;;;5052675;28;20370;-43
2022/09/11 02:54:34;;;;;;;;;;;22.20;58.30;;;;;;5058002;28;20032;-47
2022/09/11 02:57:07;;;;;;;1.58;0.80;;;22.10;58.20;;;;;;5036720;28;19990;-44
2022/09/11 02:59:40;;;;;;;3.47;0.73;;;22.10;58.40;;;;;;5036452;28;20562;-43
2022/09/11 03:02:12;;;;;;;0.90;0.73;;;22.10;58.40;;;;;;5008637;28;20070;-44
2022/09/11 03:04:40;;;;;;;2.95;0.82;;;22.10;58.30;;;;;;5032742;28;20041;-44
2022/09/11 03:07:08;;;;;;;0.70;0.70;;;22.10;58.30;;;;;;5031815;28;20408;-47
2022/09/11 03:09:35;;;;;;;2.17;0.50;;;22.10;58.30;;;;;;5042539;28;20049;-44
2022/09/11 03:12:09;;;;;;;2.15;0.45;;;22.10;58.30;;;;;;5033634;28;20073;-45
2022/09/11 03:14:37;;;;;;;0.73;0.73;;;22.10;58.30;;;;;;5029508;28;20054;-49
2022/09/11 03:17:05;;;;;;;1.17;0.63;;;22.00;58.30;;;;;;5034971;28;20075;-52
2022/09/11 03:19:33;;;;;;;2.80;0.95;;;22.00;58.20;;;;;;5024944;28;20045;-50
2022/09/11 03:22:02;;;;;;;3.72;0.57;;;22.00;58.20;;;;;;5040420;28;20069;-49
2022/09/11 03:24:29;;;;;;;1.00;0.70;;;22.00;58.20;;;;;;5036583;28;20129;-44
2022/09/11 03:26:57;;;;;;;2.97;1.00;;;22.00;58.30;;;;;;5057944;28;20032;-46
2022/09/11 03:29:24;;;;;;;1.08;0.57;;;22.00;58.30;;;;;;5034751;28;20500;-50
2022/09/11 03:31:52;;;;;;;1.48;0.85;;;22.00;58.30;;;;;;5042343;28;20040;-51
2022/09/11 03:34:19;;;;;;;4.15;0.90;;;22.00;58.30;;;;;;5031662;28;20040;-45
2022/09/11 03:36:46;;;;;;;0.85;0.73;;;21.90;58.20;;;;;;5033795;28;20120;-46
2022/09/11 03:39:16;;;;;;;0.88;0.57;;;21.90;58.20;;;;;;5017735;28;20083;-48
2022/09/11 03:41:43;;;;;;;2.80;0.75;;;21.90;58.20;;;;;;5030242;28;20044;-46
2022/09/11 03:44:11;;;;;;;1.25;0.52;;;21.90;58.20;;;;;;5049951;28;20154;-48
2022/09/11 03:46:39;;;;;;;1.48;1.38;;;21.90;58.30;;;;;;5047869;28;20498;-44
2022/09/11 03:49:06;;;;;;;1.55;0.75;;;21.90;58.30;;;;;;5029612;28;20398;-50
2022/09/11 03:51:34;;;;;;;1.08;0.70;;;21.90;58.30;;;;;;5029623;28;20495;-46
2022/09/11 03:54:02;;;;;;;0.65;0.65;;;21.90;58.30;;;;;;5029848;28;20045;-49
2022/09/11 03:56:32;;;;;;;0.55;0.55;;;21.80;58.20;;;;;;5032382;28;20541;-49
2022/09/11 03:59:00;;;;;;;1.42;0.40;;;21.80;58.20;;;;;;5029679;28;20159;-44
2022/09/11 04:01:27;;;;;;;2.50;0.73;;;21.80;58.20;;;;;;5016769;28;20072;-45
2022/09/11 04:03:56;;;;;;;5.40;0.80;;;21.80;58.30;;;;;;5021027;28;20166;-44
2022/09/11 04:06:28;;;;;;;3.83;0.60;;;21.80;58.30;;;;;;5035680;28;20045;-47
2022/09/11 04:08:56;;;;;;;0.80;0.80;;;21.80;58.40;;;;;;5030312;28;20049;-48
2022/09/11 04:11:23;;;;;;;1.13;0.57;;;21.80;58.40;;;;;;5033764;28;20052;-46
2022/09/11 04:13:53;;;;;;;2.67;0.70;;;21.80;58.40;;;;;;5028944;28;20202;-47
2022/09/11 04:16:21;;;;;;;3.08;0.77;;;21.80;58.40;;;;;;5047138;28;20041;-45
2022/09/11 04:18:53;;;;;;;0.82;0.60;;;21.80;58.40;;;;;;5042796;28;20210;-45
2022/09/11 04:21:20;;;;;;;1.42;0.35;;;21.80;58.40;;;;;;5036928;28;20547;-46
2022/09/11 04:23:52;;;;;;;2.65;0.73;;;21.80;58.40;;;;;;5036799;28;20142;-49
2022/09/11 04:26:22;;;;;;;0.73;0.47;;;21.70;58.40;;;;;;5040042;28;20044;-49
2022/09/11 04:28:54;;;;;;;2.53;0.55;;;21.80;58.30;;;;;;5058983;28;20124;-49
2022/09/11 04:31:22;;;;;;;0.60;0.60;;;21.80;58.30;;;;;;5041301;28;20049;-45
2022/09/11 04:33:49;;;;;;;1.45;0.55;;;21.70;58.30;;;;;;5058036;28;20136;-45
2022/09/11 04:36:19;;;;;;;4.10;0.30;;;21.70;58.20;;;;;;5058064;28;20048;-45
2022/09/11 04:38:47;;;;;;;1.15;0.57;;;21.70;58.20;;;;;;5045007;28;20045;-47
2022/09/11 04:41:16;;;;;;;3.85;0.30;;;21.70;58.20;;;;;;5029130;28;20106;-44
2022/09/11 04:43:43;;;;;;;0.90;0.50;;;21.70;58.20;;;;;;5035674;28;20460;-44
2022/09/11 04:46:16;;;;;;;0.95;0.50;;;21.70;58.20;;;;;;5030815;28;20064;-45
2022/09/11 04:48:44;;;;;;;2.03;1.15;;;21.70;58.20;;;;;;5041400;28;20099;-46
2022/09/11 04:51:20;;;;;;;0.82;0.82;;;21.70;58.20;;;;;;5023034;28;20055;-45
2022/09/11 04:53:48;;;;;;;0.75;0.50;;;21.70;58.20;;;;;;5036219;28;20505;-45
2022/09/11 04:56:17;;;;;;;3.58;0.77;;;21.70;58.20;;;;;;5024388;28;20052;-50
2022/09/11 04:58:52;;;;;;;0.70;0.50;;;21.70;58.20;;;;;;5042277;28;20045;-51
2022/09/11 05:01:24;;;;;;;2.38;0.43;;;21.70;58.20;;;;;;5052127;28;20076;-50
2022/09/11 05:03:55;;;;;;;3.20;0.55;;;21.70;58.30;;;;;;5028875;28;20029;-45
2022/09/11 05:06:23;;;;;;;0.60;0.20;;;21.70;58.20;;;;;;5044961;28;20122;-47
2022/09/11 05:08:50;;;;;;;2.55;0.30;;;21.70;58.20;;;;;;5036039;28;20048;-45
2022/09/11 05:11:20;;;;;;;1.95;0.30;;;21.70;58.80;;;;;;5061597;28;20523;-46
2022/09/11 05:13:47;;;;;;;1.77;0.40;;;21.70;58.20;;;;;;5039563;28;20052;-48
2022/09/11 05:16:17;;;;;;;2.85;1.02;;;21.80;58.20;;;;;;5038484;28;20087;-47
2022/09/11 05:18:51;;;;;;;1.02;1.02;;;21.80;58.20;;;;;;5023719;28;20048;-45
2022/09/11 05:21:23;;;;;;;1.55;0.40;;;21.80;58.10;;;;;;5041662;28;20609;-47
2022/09/11 05:23:52;;;;;;;5.32;0.40;;;21.80;58.20;;;;;;5036166;28;20501;-46
2022/09/11 05:26:21;;;;;;;1.15;0.90;;;21.80;58.10;;;;;;5039924;28;20045;-53
2022/09/11 05:28:54;;;;;;;0.73;0.70;;;21.80;58.20;;;;;;5050396;28;20041;-45
2022/09/11 05:31:22;;;;;;;0.57;0.57;;;21.80;58.20;;;;;;5029386;28;20472;-48
2022/09/11 05:33:51;;;;;;;0.73;0.50;;;21.80;58.20;;;;;;5050593;28;20036;-47
2022/09/11 05:36:18;;;;;;;0.57;0.35;;;21.80;58.10;;;;;;5036385;28;20041;-48
2022/09/11 05:38:46;;;;;;;2.35;0.40;;;21.80;58.10;;;;;;5010869;28;20046;-49
2022/09/11 05:41:14;;;;;;;1.30;0.70;;;21.80;58.00;;;;;;5032618;28;20040;-46
2022/09/11 05:43:42;;;;;;;2.40;0.47;;;21.90;58.00;;;;;;5034543;28;20052;-46
2022/09/11 05:46:12;;;;;;;0.60;0.60;;;21.80;58.00;;;;;;5037332;28;20060;-46
2022/09/11 05:48:40;;;;;;;0.77;0.25;;;21.90;58.00;;;;;;5045989;28;20057;-44
2022/09/11 05:51:13;;;;;;;0.85;0.52;;;21.90;57.90;;;;;;5015212;28;20073;-45
2022/09/11 05:53:40;;;;;;;1.48;0.70;;;21.90;57.80;;;;;;5030774;28;20123;-47
2022/09/11 05:56:10;;;;;;;1.30;0.77;;;21.90;57.80;;;;;;5046534;28;20080;-44
2022/09/11 05:58:38;;;;;;;1.77;0.40;;;21.90;57.70;;;;;;5036151;28;20417;-48
2022/09/11 06:01:07;;;;;;;1.05;0.32;;;21.90;58.40;;;;;;5037532;28;20045;-48
2022/09/11 06:03:36;;;;;;;2.35;0.30;;;21.80;57.80;;;;;;5035383;28;20516;-48
2022/09/11 06:06:05;;;;;;;1.65;0.70;;;21.90;57.70;;;;;;5059351;28;20220;-45
2022/09/11 06:08:34;;;;;;;0.82;0.38;;;21.90;57.70;;;;;;5049883;28;20057;-45
2022/09/11 06:11:06;;;;;;;2.13;0.85;;;21.90;57.60;;;;;;5048698;28;20293;-47
2022/09/11 06:13:37;;;;;;;1.52;0.45;;;21.90;57.60;;;;;;5036974;28;20037;-48
2022/09/11 06:16:07;;;;;;;2.03;0.50;;;21.90;57.60;;;;;;5032624;28;20033;-46
2022/09/11 06:18:34;;;;;;;5.25;0.82;;;21.90;57.50;;;;;;5025876;28;20119;-46
2022/09/11 06:21:06;;;;;;;1.90;0.65;;;21.90;57.50;;;;;;5036982;28;20063;-46
2022/09/11 06:23:40;;;;;;;2.67;0.45;;;21.90;57.60;;;;;;5009715;28;20081;-44
2022/09/11 06:26:09;;;;;;;0.90;0.57;;;21.90;57.50;;;;;;5038769;28;20051;-44
2022/09/11 06:28:39;;;;;;;1.00;0.45;;;21.90;57.50;;;;;;5031638;28;20049;-44
2022/09/11 06:31:07;;;;;;;1.25;0.63;;;21.90;57.50;;;;;;5033769;28;20037;-43
2022/09/11 06:33:37;;;;;;;0.77;0.77;;;21.90;57.50;;;;;;5047693;28;20456;-44
2022/09/11 06:36:07;;;;;;;0.80;0.70;;;21.90;57.50;;;;;;5036982;28;20043;-43
2022/09/11 06:38:34;;;;;;;0.85;0.82;;;21.90;57.50;;;;;;5058443;28;20087;-45
2022/09/11 06:41:05;;;;;;;1.92;0.47;;;21.90;57.50;;;;;;5034302;28;20063;-45
2022/09/11 06:43:35;;;;;;;1.80;0.50;;;21.90;57.90;;;;;;5014928;28;20057;-45
2022/09/11 06:46:08;;;;;;;2.10;1.77;;;21.90;57.40;;;;;;5049651;28;20055;-44
2022/09/11 06:48:35;;;;;;;1.20;0.75;;;21.90;57.50;;;;;;5027670;28;20036;-46
2022/09/11 06:51:03;;;;;;;1.42;0.52;;;21.90;57.50;;;;;;5033543;28;20257;-47
2022/09/11 06:53:32;;;;;;;0.98;0.93;;;21.80;57.50;;;;;;5049887;28;20127;-47
2022/09/11 06:56:07;;;;;;;1.23;0.70;;;21.80;57.50;;;;;;5034842;28;20041;-44
2022/09/11 06:58:35;;;;;;;3.58;0.60;;;21.80;57.50;;;;;;5036191;28;20522;-46
2022/09/11 07:01:04;;;;;;;2.47;1.45;;;21.80;57.60;;;;;;5033414;28;20036;-44
2022/09/11 07:03:33;;;;;;;0.90;0.75;;;21.70;57.60;;;;;;5032906;28;20045;-46
2022/09/11 07:06:01;;;;;;;3.17;1.23;;;21.80;57.70;;;;;;5032267;28;20030;-55
2022/09/11 07:08:29;;;;;;;0.82;0.77;;;21.70;57.80;;;;;;5042632;28;20045;-54
2022/09/11 07:11:03;;;;;;;3.17;1.67;;;21.80;58.00;;;;;;5043414;28;20071;-55
2022/09/11 07:13:34;;;;;;;2.20;1.40;;;21.80;58.90;;;;;;5044228;28;20057;-57
2022/09/11 07:16:02;;;;;;;2.97;0.85;;;21.80;58.60;;;;;;5044861;28;20041;-55
2022/09/11 07:18:35;;;;;;;2.15;0.90;;;21.80;59.00;;;;;;5036218;28;20608;-56
2022/09/11 07:21:07;;;;;;;6.00;0.65;;;21.80;59.10;;;;;;5043269;28;20051;-55
2022/09/11 07:23:35;;;;;;;3.83;1.70;;;21.90;59.30;;;;;;5044666;28;20083;-53
2022/09/11 07:26:04;;;;;;;0.95;0.95;;;22.00;59.90;;;;;;5061654;28;20045;-52
2022/09/11 07:28:36;;;;;;;1.80;0.77;;;22.10;59.40;;;;;;5044729;28;20044;-51
2022/09/11 07:31:10;;;;;;;1.70;1.33;;;22.20;59.30;;;;;;5044008;28;20045;-47
2022/09/11 07:33:38;;;;;;;1.45;0.90;;;22.30;59.10;;;;;;5045279;28;20037;-46
2022/09/11 07:36:10;;;;;;;1.98;1.02;;;22.40;58.90;;;;;;5061498;28;20060;-60
2022/09/11 07:38:41;;;;;;;3.65;1.73;;;22.50;58.70;;;;;;5044097;28;20057;-49
2022/09/11 07:41:10;;;;;;;4.00;3.25;;;22.70;58.50;;;;;;5046375;28;20041;-51
2022/09/11 07:43:44;;;;;;;3.47;1.65;;;22.70;58.20;;;;;;5040908;28;20040;-56
2022/09/11 07:46:13;;;;;;;5.00;2.45;;;22.90;58.10;;;;;;5043732;28;20045;-58
2022/09/11 07:48:41;;;;;;;4.95;1.23;;;23.00;57.80;;;;;;5061524;28;20051;-57
2022/09/11 07:51:11;;;;;;;1.52;0.95;;;23.10;57.60;;;;;;5041125;28;20090;-55
2022/09/11 07:53:40;;;;;;;3.05;0.95;;;23.20;57.40;;;;;;5042829;28;20033;-48
2022/09/11 07:56:09;;;;;;;6.70;1.05;;;23.30;57.20;;;;;;5044531;28;20138;-49
2022/09/11 07:58:44;;;;;;;1.95;1.05;;;23.50;57.00;;;;;;5042127;28;20037;-51
2022/09/11 08:01:14;;;;;;;2.58;1.40;;;23.60;56.50;;;;;;5028305;28;20097;-52
2022/09/11 08:03:42;;;;;;;1.75;1.08;;;23.80;56.20;;;;;;5036788;28;20067;-49
2022/09/11 08:06:12;;;;;;;3.22;1.45;;;23.90;55.80;;;;;;5045214;28;20037;-50
2022/09/11 08:08:41;;;;;;;1.20;1.10;;;24.10;55.40;;;;;;5020731;28;20140;-47
2022/09/11 08:11:11;;;;;;;2.78;2.08;;;24.30;54.90;;;;;;5027192;28;20041;-55
2022/09/11 08:13:40;;;;;;;1.08;1.00;;;24.40;54.60;;;;;;5050756;28;20053;-50
2022/09/11 08:16:08;;;;;;;1.35;1.25;;;24.40;54.30;;;;;;5049114;28;20065;-53
2022/09/11 08:18:37;;;;;;;3.83;1.42;;;24.50;54.20;;;;;;5046731;28;20051;-53
2022/09/11 08:21:08;;;;;;;1.58;0.55;;;24.60;54.00;;;;;;5047871;28;20064;-54
2022/09/11 08:23:39;;;;;;;5.75;1.45;;;24.70;53.80;;;;;;5043228;28;20068;-51
2022/09/11 08:26:08;;;;;;;0.68;0.60;;;24.80;53.60;;;;;;5037179;28;20501;-52
2022/09/11 08:28:38;;;;;;;1.15;0.73;;;24.90;53.30;;;;;;5043442;28;20068;-55
2022/09/11 08:31:07;;;;;;;4.53;1.40;;;25.00;53.00;;;;;;5044056;28;20053;-59
2022/09/11 08:33:35;;;;;;;1.00;0.60;;;25.10;52.80;;;;;;5043076;28;20097;-56
2022/09/11 08:36:05;;;;;;;0.70;0.63;;;25.20;52.60;;;;;;5042876;28;20041;-56
2022/09/11 08:38:34;;;;;;;3.33;1.20;;;25.30;52.30;;;;;;5043581;28;20048;-55
2022/09/11 08:41:11;;;;;;;0.77;0.65;;;25.40;52.10;;;;;;5032754;28;20714;-56
2022/09/11 08:43:51;;;;;;;2.08;0.63;;;25.50;51.80;;;;;;5040507;28;20101;-56
2022/09/11 08:46:23;;;;;;;2.85;0.75;;;25.60;51.60;;;;;;5042466;28;20041;-56
2022/09/11 08:48:57;;;;;;;2.90;0.82;;;25.60;51.30;;;;;;5043051;28;20048;-56
2022/09/11 08:51:25;;;;;;;0.82;0.65;;;25.70;51.20;;;;;;5036224;28;20083;-56
2022/09/11 08:53:55;;;;;;;2.40;0.47;;;25.70;51.00;;;;;;5038261;28;20039;-57
2022/09/11 08:56:25;;;;;;;0.98;0.73;;;25.80;50.70;;;;;;5038081;28;20059;-59
2022/09/11 08:59:12;;;;;;;0.40;0.35;;;25.70;50.40;;;;;;5055668;28;20120;-58
2022/09/11 09:01:46;;;;;;;4.57;0.50;;;25.70;50.40;;;;;;5043920;28;20100;-52
2022/09/11 09:04:41;;;;;;;13.80;3.03;;;25.60;50.50;;;;;;5046633;28;20072;-48
2022/09/11 09:07:16;;;;;;;3.35;1.00;;;25.50;50.40;;;;;;5037029;28;20037;-49
2022/09/11 09:09:54;;;;;;;7.55;1.17;;;25.30;50.10;;;;;;5033060;28;20772;-48
2022/09/11 09:12:32;;;;;;;2.13;0.85;;;25.30;50.20;;;;;;5027889;28;20056;-56
2022/09/11 09:15:23;;;;;;;3.33;0.90;;;25.10;50.20;;;;;;5031682;28;20439;-51
2022/09/11 09:17:59;;;;;;;0.95;0.85;;;25.00;50.60;;;;;;5046060;28;20045;-49
2022/09/11 09:20:32;;;;;;;2.58;0.98;;;24.90;51.00;;;;;;5044858;28;20055;-56
2022/09/11 09:23:03;;;;;;;2.75;0.40;;;24.90;51.50;;;;;;5034335;28;20047;-54
2022/09/11 09:25:36;;;;;;;2.17;0.60;;;24.90;51.80;;;;;;5032476;28;20037;-54
2022/09/11 09:28:13;;;;;;;1.13;0.47;;;24.90;51.80;;;;;;5028129;28;20506;-49
2022/09/11 09:30:47;;;;;;;3.00;0.68;;;24.90;51.70;;;;;;5033925;28;20334;-54
2022/09/11 09:33:26;;;;;;;4.47;0.50;;;25.00;51.70;;;;;;5034930;28;20119;-53
2022/09/11 09:35:54;;;;;;;1.98;1.23;;;25.00;51.70;;;;;;5032691;28;20037;-49
2022/09/11 09:38:29;;;;;;;2.75;0.60;;;25.10;51.70;;;;;;5032606;28;20128;-50
2022/09/11 09:41:12;;;;;;;5.47;0.60;;;25.10;51.30;;;;;;5032786;28;20513;-49
2022/09/11 09:43:50;;;;;;;7.28;1.35;;;25.20;51.40;;;;;;5048463;28;20037;-51
2022/09/11 09:46:26;;;;;;;8.45;0.47;;;25.20;51.50;;;;;;5051733;28;20040;-50
2022/09/11 09:48:55;;;;;;;1.10;0.40;;;25.20;51.60;;;;;;5049546;28;20130;-54
2022/09/11 09:51:22;;;;;;;4.03;0.63;;;25.30;51.60;;;;;;5049527;28;20824;-51
2022/09/11 09:53:55;;;;;;;0.80;0.20;;;25.30;51.60;;;;;;5051960;28;20044;-54
2022/09/11 09:56:23;;;;;;;2.28;0.10;;;25.40;51.70;;;;;;5049232;28;20044;-51
2022/09/11 09:58:59;;;;;;;0.90;0.20;;;25.40;51.60;;;;;;5047768;28;20037;-50
2022/09/11 10:01:48;;;;;;;0.73;0.52;;;25.40;51.50;;;;;;5049771;28;20533;-52
2022/09/11 10:04:20;;;;;;;1.83;0.50;;;25.50;51.40;;;;;;5044039;28;20044;-51
2022/09/11 10:06:50;;;;;;;2.75;0.77;;;25.50;51.50;;;;;;5046747;28;20037;-52
2022/09/11 10:09:26;;;;;;;2.85;0.55;;;25.60;51.50;;;;;;5049096;28;20569;-55
2022/09/11 10:12:01;;;;;;;2.97;0.20;;;25.60;51.40;;;;;;5049789;28;20072;-54
2022/09/11 10:14:31;;;;;;;0.88;0.35;;;25.60;51.40;;;;;;5049089;28;20107;-52
2022/09/11 10:17:00;;;;;;;20.33;1.98;;;25.60;51.60;;;;;;5056838;28;20036;-55
2022/09/11 10:19:38;;;;;;;2.85;0.30;;;25.70;51.60;;;;;;5049447;28;20045;-55
2022/09/11 10:22:29;;;;;;;3.50;0.50;;;25.70;51.60;;;;;;5056059;28;20044;-55
2022/09/11 10:25:11;;;;;;;2.33;0.20;;;25.80;51.20;;;;;;5049727;28;20037;-51
2022/09/11 10:27:46;;;;;;;2.30;0.40;;;25.80;51.30;;;;;;5033401;28;20136;-56
2022/09/11 10:30:28;;;;;;;1.75;0.47;;;25.80;51.20;;;;;;5031789;28;20041;-54
2022/09/11 10:32:57;;;;;;;1.15;0.50;;;25.80;50.70;;;;;;5046653;28;20556;-51
2022/09/11 10:35:27;;;;;;;2.92;0.73;;;25.80;50.80;;;;;;5050620;28;20041;-53
2022/09/11 10:38:07;;;;;;;1.35;0.60;;;25.90;50.60;;;;;;5052574;28;20048;-50
2022/09/11 10:40:34;;;;;;;3.75;1.10;;;25.90;50.40;;;;;;5038862;28;20041;-55
2022/09/11 10:43:01;;;;;;;2.05;0.20;;;26.00;50.50;;;;;;5038802;28;20037;-56
2022/09/11 10:45:30;;;;;;;1.27;0.20;;;26.00;51.00;;;;;;5052714;28;20135;-52
2022/09/11 10:48:16;;;;;;;2.17;0.20;;;26.00;50.30;;;;;;5049855;28;20041;-54
2022/09/11 10:50:44;;;;;;;0.63;0.10;;;26.10;50.30;;;;;;5051074;28;20047;-54
2022/09/11 10:53:20;;;;;;;2.17;0.30;;;26.00;50.40;;;;;;5053652;28;20049;-54
2022/09/11 10:55:57;;;;;;;0.55;0.10;;;26.10;50.30;;;;;;5055804;28;20046;-58
2022/09/11 10:58:29;;;;;;;0.20;0.10;;;26.10;50.30;;;;;;5052943;28;20095;-56
2022/09/11 11:00:57;;;;;;;0.75;0.28;;;26.10;50.30;;;;;;5049216;28;20429;-57
2022/09/11 11:03:26;;;;;;;1.05;0.10;;;26.10;50.30;;;;;;5034684;28;20592;-53
2022/09/11 11:06:11;;;;;;;1.15;0.30;;;26.10;50.30;;;;;;5050601;28;20098;-59
2022/09/11 11:08:58;;;;;;;0.08;0.08;;;26.20;50.10;;;;;;5047251;28;20090;-53
2022/09/11 11:11:39;;;;;;;0.17;0.10;;;26.20;50.20;;;;;;5050997;28;20044;-56
2022/09/11 11:14:31;;;;;;;1.23;0.20;;;26.20;50.20;;;;;;5037429;28;20682;-56
2022/09/11 11:17:05;;;;;;;1.83;0.52;;;26.20;50.20;;;;;;5043082;28;20044;-59
2022/09/11 11:19:50;;;;;;;0.10;0.10;;;26.20;50.20;;;;;;5050745;28;20044;-58
2022/09/11 11:22:33;;;;;;;1.85;0.40;;;26.20;50.10;;;;;;5048787;28;20795;-54
2022/09/11 11:25:15;;;;;;;1.20;0.10;;;26.20;50.00;;;;;;5049113;28;20509;-54
2022/09/11 11:28:02;;;;;;;1.30;0.10;;;26.20;50.00;;;;;;5054924;28;20052;-54
2022/09/11 11:30:33;;;;;;;1.35;0.10;;;26.20;49.90;;;;;;5048537;28;20049;-55
2022/09/11 11:33:34;;;;;;;0.20;0.10;;;26.20;49.90;;;;;;5054533;28;20102;-53
2022/09/11 11:36:05;;;;;;;1.45;0.13;;;26.30;49.80;;;;;;5048804;28;20029;-54
2022/09/11 11:38:40;;;;;;;0.20;0.20;;;26.30;49.90;;;;;;5046312;28;20045;-56
2022/09/11 11:41:15;;;;;;;0.10;0.10;;;26.30;49.80;;;;;;5050889;28;20086;-55
2022/09/11 11:43:45;;;;;;;0.38;0.10;;;26.30;49.80;;;;;;5048412;28;20098;-53
2022/09/11 11:46:17;;;;;;;0.50;0.20;;;26.30;49.80;;;;;;5048279;28;20567;-57
2022/09/11 11:48:50;;;;;;;1.15;0.32;;;26.40;49.80;;;;;;5052916;28;20055;-55
2022/09/11 11:51:19;;;;;;;0.10;0.10;;;26.40;49.80;;;;;;5048595;28;20060;-54
2022/09/11 11:53:55;;;;;;;0.28;0.10;;;26.40;49.70;;;;;;5048396;28;20049;-56
2022/09/11 11:56:32;;;;;;;0.30;0.10;;;26.40;49.70;;;;;;5042646;28;20067;-51
2022/09/11 11:59:06;;;;;;;0.10;0.10;;;26.40;49.70;;;;;;5048171;28;20041;-50
2022/09/11 12:01:39;;;;;;;0.28;0.10;;;26.40;49.60;;;;;;5048345;28;20037;-57
2022/09/11 12:04:16;;;;;;;0.25;0.10;;;26.40;49.60;;;;;;5049567;28;20120;-53
2022/09/11 12:06:43;;;;;;;0.17;0.10;;;26.40;49.60;;;;;;5048453;28;20041;-53
2022/09/11 12:09:16;;;;;;;0.10;0.10;;;26.40;49.60;;;;;;5048134;28;20069;-57
2022/09/11 12:11:47;;;;;;;0.47;0.10;;;26.50;49.60;;;;;;5048293;28;20053;-50
2022/09/11 12:14:26;;;;;;;0.32;0.10;;;26.50;49.60;;;;;;5048236;28;20103;-56
2022/09/11 12:16:55;;;;;;;0.10;0.10;;;26.50;49.50;;;;;;5048238;28;20204;-55
2022/09/11 12:19:25;;;;;;;0.10;0.10;;;26.50;49.50;;;;;;5048011;28;20038;-56
2022/09/11 12:22:12;;;;;;;0.25;0.20;;;26.50;49.40;;;;;;5054783;28;20044;-53
2022/09/11 12:24:58;;;;;;;0.30;0.10;;;26.60;49.40;;;;;;5030435;28;20068;-52
2022/09/11 12:27:50;;;;;;;0.95;0.10;;;26.60;49.40;;;;;;5052193;28;20037;-52
2022/09/11 12:30:23;;;;;;;0.13;0.10;;;26.60;49.30;;;;;;5043933;28;20052;-49
2022/09/11 12:32:51;;;;;;;0.30;0.00;;;26.60;49.30;;;;;;5047949;28;20154;-49
2022/09/11 12:35:27;;;;;;;1.52;0.40;;;26.70;49.40;;;;;;5047981;28;20045;-53
2022/09/11 12:37:56;;;;;;;;;;;26.70;49.30;;;;;;5051775;28;20566;-50
2022/09/11 12:40:32;;;;;;;0.20;0.10;;;26.70;49.30;;;;;;5033078;28;19931;-52
2022/09/11 12:43:16;;;;;;;0.40;0.10;;;26.70;49.30;;;;;;5058101;28;20542;-56
2022/09/11 12:45:46;;;;;;;1.42;0.05;;;26.70;49.20;;;;;;5034482;28;20045;-57
2022/09/11 12:48:16;;;;;;;0.05;0.00;;;26.80;49.20;;;;;;5051982;28;20116;-56
2022/09/11 12:50:50;;;;;;;0.10;0.10;;;26.80;49.10;;;;;;5051889;28;20052;-56
2022/09/11 12:53:22;;;;;;;0.10;0.10;;;26.90;49.10;;;;;;5053720;28;20156;-55
2022/09/11 12:56:00;;;;;;;0.03;0.03;;;26.90;49.10;;;;;;5035556;28;20409;-56
2022/09/11 12:58:35;;;;;;;0.10;0.00;;;26.90;49.00;;;;;;5051709;28;20052;-56
2022/09/11 13:01:17;;;;;;;0.32;0.10;;;26.90;49.00;;;;;;5051697;28;20124;-55
2022/09/11 13:03:53;;;;;;;0.20;0.05;;;27.00;49.00;;;;;;5052380;28;20507;-54
2022/09/11 13:06:20;;;;;;;;;;;27.00;49.00;;;;;;5058173;28;20600;-56
2022/09/11 13:08:53;;;;;;;0.73;0.00;;;27.00;49.00;;;;;;5051895;28;20372;-56
2022/09/11 13:11:42;;;;;;;0.20;0.10;;;27.00;49.10;;;;;;5051183;28;20072;-55
2022/09/11 13:14:45;;;;;;;0.30;0.00;;;27.10;49.60;;;;;;5049897;28;20098;-52